메인 페이지
METAR-TAF:

METAR-TAF

공항 :

시몬 볼리바르 국제공항

카라카스, 베네수엘라

위도: 10-36N, 경도: 066-59W, 고도: 43m

현재 날씨관측

예보는 18 시간 42분 전, 18:00시(UTC)에 발표되었습니다.
북동5kt
온도 31°C
습도 63%
기압 1008 hPa
시정 10km 이상
고도 1600ft 상공 구름 보통

METAR: SVMI 211800Z 05005KT 9999 SCT016 31/23 Q1008

시각: 08:42 (12:42 UTC)

예보

예보는 2 시간 42분 전, 10:00시(UTC)에 발표되었습니다.
예보 대상 시간: 22일 12시부터 23일 12시까지 (UTC)
5kt
시정 10km 이상
고도 1600ft 상공 구름 보통
일시적
22일 12시부터 22일 16시까지 (UTC)
9kt
시정 10km 이상
고도 1600ft 상공 구름 많음

TAF: SVMI 221000Z 2212/2312 09005KT 9999 SCT016 TX32/18Z TN24/08Z TEMPO 2212/2216 09009KT 9999 BKN016

4,000개 이상의 공항 관측 자료 및 예보 (METAR 및 TAF 보고).

지도상에서 검색 가능한 기상관측소가 노란 점과 빨간 점으로 표시되어 있습니다.

기상관측소 명을 보려면 표시 위로 마우스를 이동하세요.

날씨 관측과 예보를 보려면 클릭하세요.

지도 변경 : 확대하려면 엑스 표시가 있는 녹색 버튼, 축소하려면 빼기 표시가 있는 녹색 버튼, 다음 페이지의 지도를 보려면 녹색 화살표를 클릭하세요.


METAR-TAF: